Time;durP1;ratioP1;P1;durP2;ratioP2;P2;SDS_P1;SDS_P2;PMS_P1;PMS_P2;Temp;Humidity;BMP_temperature;BMP_pressure;BME280_temperature;BME280_humidity;BME280_pressure;Samples;Min_cycle;Max_cycle;Signal;HPM_P1;HPM_P2
2022/03/17 00:02:10;;;;;;;16.60;8.57;;;;;;;6.35;80.34;95262.06;4972740;28;20209;-79
2022/03/17 00:04:39;;;;;;;22.67;9.35;;;;;;;6.35;80.49;95259.38;4961730;28;20203;-80
2022/03/17 00:07:05;;;;;;;12.00;6.97;;;;;;;6.35;80.19;95251.31;4966235;28;20206;-77
2022/03/17 00:09:32;;;;;;;20.00;11.10;;;;;;;6.34;80.25;95257.78;4966524;28;20217;-80
2022/03/17 00:12:01;;;;;;;16.20;7.85;;;;;;;6.38;80.19;95253.44;4966987;28;20239;-81
2022/03/17 00:14:28;;;;;;;20.90;13.90;;;;;;;6.45;80.22;95261.16;4965608;28;20206;-81
2022/03/17 00:16:55;;;;;;;17.80;11.50;;;;;;;6.48;79.73;95252.50;4960220;28;20207;-78
2022/03/17 00:19:21;;;;;;;18.33;9.82;;;;;;;6.46;80.16;95260.06;4958927;28;20209;-79
2022/03/17 00:21:50;;;;;;;18.10;8.90;;;;;;;6.45;79.78;95247.69;4965331;28;20210;-79
2022/03/17 00:24:17;;;;;;;17.08;9.23;;;;;;;6.52;80.04;95252.75;4966851;28;20253;-80
2022/03/17 00:26:44;;;;;;;16.23;9.40;;;;;;;6.51;79.63;95253.84;4972068;28;20261;-79
2022/03/17 00:29:11;;;;;;;13.25;7.68;;;;;;;6.47;80.23;95250.09;4959440;28;20893;-80
2022/03/17 00:31:39;;;;;;;15.45;8.57;;;;;;;6.50;79.79;95249.53;4964992;28;20227;-79
2022/03/17 00:34:06;;;;;;;15.18;8.13;;;;;;;6.50;79.64;95263.00;4966249;28;20209;-79
2022/03/17 00:36:34;;;;;;;16.00;9.25;;;;;;;6.45;79.84;95253.06;4961349;28;20229;-80
2022/03/17 00:39:04;;;;;;;19.70;10.32;;;;;;;6.42;80.07;95254.44;4958847;28;20206;-81
2022/03/17 00:41:31;;;;;;;18.08;9.15;;;;;;;6.42;80.01;95259.81;4963284;28;20788;-79
2022/03/17 00:43:58;;;;;;;20.75;10.13;;;;;;;6.48;79.92;95259.78;4965808;28;20230;-80
2022/03/17 00:46:25;;;;;;;17.88;9.27;;;;;;;6.46;80.12;95259.25;4962669;28;20213;-80
2022/03/17 00:48:52;;;;;;;20.98;10.10;;;;;;;6.49;79.80;95259.50;4970046;28;20211;-80
2022/03/17 00:51:19;;;;;;;15.73;8.68;;;;;;;6.51;79.77;95267.28;4953514;28;20218;-78
2022/03/17 00:53:46;;;;;;;17.63;9.45;;;;;;;6.40;80.27;95267.41;4966423;28;20679;-80
2022/03/17 00:56:15;;;;;;;12.00;6.72;;;;;;;6.34;80.63;95278.50;4963343;28;20257;-78
2022/03/17 00:58:45;;;;;;;33.95;18.10;;;;;;;6.26;80.80;95282.63;4959695;28;20257;-79
2022/03/17 01:01:13;;;;;;;8.00;4.43;;;;;;;6.21;81.61;95285.34;4961498;28;20266;-76
2022/03/17 01:03:40;;;;;;;8.15;5.05;;;;;;;5.99;82.80;95293.09;4966558;28;20737;-81
2022/03/17 01:06:07;;;;;;;12.90;7.78;;;;;;;5.61;84.14;95308.91;4964999;28;20210;-82
2022/03/17 01:08:34;;;;;;;8.82;5.28;;;;;;;5.32;85.57;95300.78;4959333;28;20650;-79
2022/03/17 01:11:01;;;;;;;15.23;7.65;;;;;;;5.14;86.11;95303.31;4960683;28;20203;-79
2022/03/17 01:13:29;;;;;;;7.65;5.15;;;;;;;4.97;86.04;95309.81;4965860;28;20694;-73
2022/03/17 01:15:56;;;;;;;8.73;5.35;;;;;;;4.88;86.37;95305.31;4965311;28;20226;-78
2022/03/17 01:18:23;;;;;;;13.13;6.82;;;;;;;4.71;86.61;95312.88;4965903;28;20226;-75
2022/03/17 01:20:51;;;;;;;12.15;6.68;;;;;;;4.61;86.33;95311.03;4965926;28;20238;-74
2022/03/17 01:23:18;;;;;;;9.43;5.32;;;;;;;4.53;87.02;95311.56;4959270;28;20229;-79
2022/03/17 01:25:45;;;;;;;11.00;6.35;;;;;;;4.51;86.95;95324.50;4958980;28;20211;-76
2022/03/17 01:28:12;;;;;;;7.32;3.83;;;;;;;4.47;87.13;95318.06;4959942;28;20245;-79
2022/03/17 01:30:40;;;;;;;10.50;5.78;;;;;;;4.45;87.14;95318.31;4959546;28;20258;-78
2022/03/17 01:33:07;;;;;;;17.98;9.18;;;;;;;4.49;87.60;95319.38;4971306;28;20226;-80
2022/03/17 01:35:35;;;;;;;18.42;9.82;;;;;;;4.50;87.30;95320.19;4959397;28;20229;-78
2022/03/17 01:38:03;;;;;;;14.40;7.53;;;;;;;4.48;87.72;95322.34;4964337;28;20203;-81
2022/03/17 01:40:29;;;;;;;17.63;7.97;;;;;;;4.51;87.66;95324.50;4966576;28;20597;-79
2022/03/17 01:42:57;;;;;;;14.88;7.97;;;;;;;4.63;88.18;95335.72;4972253;28;20222;-80
2022/03/17 01:45:25;;;;;;;12.68;7.03;;;;;;;4.87;87.92;95330.53;4959536;28;20237;-80
2022/03/17 01:47:53;;;;;;;16.33;7.57;;;;;;;4.90;87.19;95341.53;4963741;28;20230;-80
2022/03/17 01:50:21;;;;;;;13.40;8.07;;;;;;;4.98;86.88;95338.28;4965335;28;20289;-81
2022/03/17 01:52:49;;;;;;;10.65;6.80;;;;;;;5.09;86.36;95338.22;4961140;28;20202;-80
2022/03/17 01:55:18;;;;;;;13.27;7.00;;;;;;;5.11;86.26;95347.63;4956704;28;20223;-81
2022/03/17 01:57:45;;;;;;;13.15;7.28;;;;;;;5.23;85.88;95344.59;4961896;28;20268;-81
2022/03/17 02:00:17;;;;;;;15.15;7.72;;;;;;;5.28;85.20;95345.41;4958692;28;20230;-81
2022/03/17 02:02:44;;;;;;;14.38;7.60;;;;;;;5.35;85.43;95347.75;4962035;28;20991;-81
2022/03/17 02:05:12;;;;;;;14.85;6.55;;;;;;;5.42;85.31;95342.91;4965743;28;20203;-81
2022/03/17 02:07:41;;;;;;;15.48;8.18;;;;;;;5.42;84.65;95332.16;4963159;28;20210;-81
2022/03/17 02:10:09;;;;;;;13.10;7.72;;;;;;;5.43;85.54;95335.66;4972003;28;20209;-81
2022/03/17 02:15:21;;;;;;;16.38;8.77;;;;;;;5.42;84.90;95332.16;4959984;28;20233;-81
2022/03/17 02:17:48;;;;;;;15.45;8.60;;;;;;;5.06;85.69;95338.81;4958351;28;20227;-82
2022/03/17 02:20:16;;;;;;;12.93;6.93;;;;;;;4.84;86.84;95342.63;4960234;28;20229;-83
2022/03/17 02:22:45;;;;;;;12.63;7.60;;;;;;;4.80;87.58;95344.22;4958748;28;20211;-82
2022/03/17 02:28:02;;;;;;;12.55;7.07;;;;;;;4.71;87.34;95355.81;4956562;28;20755;-81
2022/03/17 02:30:29;;;;;;;14.05;5.00;;;;;;;4.72;86.89;95357.41;4972979;28;20273;-80
2022/03/17 02:33:00;;;;;;;4.50;3.22;;;;;;;4.61;86.26;95353.97;4962385;28;20281;-83
2022/03/17 02:35:28;;;;;;;6.45;3.92;;;;;;;4.52;86.28;95360.94;4963598;28;20638;-84
2022/03/17 02:37:56;;;;;;;5.28;3.00;;;;;;;4.51;86.68;95354.00;4975021;28;20210;-82
2022/03/17 02:40:26;;;;;;;4.53;3.00;;;;;;;4.46;86.78;95351.31;4963102;28;20235;-81
2022/03/17 02:42:53;;;;;;;7.80;4.60;;;;;;;4.49;86.79;95356.13;4975364;28;20305;-80
2022/03/17 02:45:20;;;;;;;5.53;3.70;;;;;;;4.57;86.63;95360.94;4962404;28;20675;-81
2022/03/17 02:47:47;;;;;;;10.95;4.10;;;;;;;4.56;86.30;95362.81;4967626;28;20207;-80
2022/03/17 02:50:14;;;;;;;4.80;3.15;;;;;;;4.66;86.00;95367.34;4968844;28;20213;-80
2022/03/17 02:52:42;;;;;;;4.70;3.00;;;;;;;4.48;85.82;95365.25;4955130;28;20207;-81
2022/03/17 02:55:11;;;;;;;5.13;3.08;;;;;;;4.51;85.60;95375.47;4955844;28;20227;-83
2022/03/17 02:57:40;;;;;;;4.53;2.92;;;;;;;4.55;86.08;95371.13;4965973;28;20658;-81
2022/03/17 03:00:09;;;;;;;7.55;3.80;;;;;;;4.61;86.21;95370.06;4967908;28;20230;-81
2022/03/17 03:02:37;;;;;;;5.72;3.08;;;;;;;4.70;86.14;95379.16;4955470;28;20218;-81
2022/03/17 03:05:04;;;;;;;4.75;2.92;;;;;;;4.80;84.84;95376.44;4968404;28;20250;-81
2022/03/17 03:07:31;;;;;;;5.30;3.45;;;;;;;4.78;85.34;95375.94;4964692;28;20207;-81
2022/03/17 03:09:59;;;;;;;4.82;3.15;;;;;;;4.72;85.01;95378.88;4962045;28;20202;-80
2022/03/17 03:12:26;;;;;;;5.82;3.42;;;;;;;4.82;84.88;95382.34;4965220;28;20222;-81
2022/03/17 03:14:54;;;;;;;26.15;11.13;;;;;;;4.83;86.24;95383.97;4971137;28;20717;-81
2022/03/17 03:17:22;;;;;;;24.70;10.95;;;;;;;4.92;86.51;95382.31;4965011;28;20227;-81
2022/03/17 03:19:49;;;;;;;17.55;8.23;;;;;;;5.09;86.05;95391.94;4968097;28;20673;-81
2022/03/17 03:22:17;;;;;;;11.07;5.93;;;;;;;5.28;85.56;95390.25;4964794;28;20245;-81
2022/03/17 03:24:45;;;;;;;16.13;7.97;;;;;;;5.01;83.92;95393.31;4974569;28;20570;-77
2022/03/17 03:27:11;;;;;;;7.85;5.97;;;;;;;4.71;80.44;95401.44;4964013;28;20238;-79
2022/03/17 03:29:39;;;;;;;8.27;5.18;;;;;;;4.38;81.69;95408.97;4968055;28;20199;-79
2022/03/17 03:32:09;;;;;;;2.15;1.95;;;;;;;4.26;81.82;95406.56;4965286;28;20573;-79
2022/03/17 03:34:36;;;;;;;9.15;5.20;;;;;;;4.18;83.00;95404.44;4961192;28;20202;-81
2022/03/17 03:39:47;;;;;;;4.25;2.05;;;;;;;4.08;82.58;95403.63;4961312;28;20196;-79
2022/03/17 03:42:15;;;;;;;5.78;3.35;;;;;;;4.00;82.02;95402.28;4958374;28;20223;-82
2022/03/17 03:44:42;;;;;;;8.80;4.80;;;;;;;4.01;82.58;95403.88;4963517;28;20213;-79
2022/03/17 03:47:11;;;;;;;6.47;3.90;;;;;;;3.98;82.09;95400.94;4960797;28;20207;-83
2022/03/17 03:49:40;;;;;;;6.47;3.75;;;;;;;3.86;82.25;95403.88;4965150;28;20219;-79
2022/03/17 03:52:08;;;;;;;5.20;3.42;;;;;;;3.78;82.99;95410.56;4967493;28;20257;-78
2022/03/17 03:54:35;;;;;;;8.98;4.72;;;;;;;3.76;83.50;95406.53;4965457;28;20620;-79
2022/03/17 03:57:03;;;;;;;11.98;3.05;;;;;;;3.78;83.52;95412.44;4971575;28;20574;-80
2022/03/17 03:59:31;;;;;;;7.20;3.20;;;;;;;3.79;83.19;95422.09;4964798;28;20230;-79
2022/03/17 04:02:00;;;;;;;8.55;4.20;;;;;;;3.68;83.82;95429.31;4960596;28;20713;-77
2022/03/17 04:04:29;;;;;;;6.68;2.72;;;;;;;3.66;83.50;95438.66;4963252;28;20697;-80
2022/03/17 04:06:58;;;;;;;11.32;5.85;;;;;;;3.55;84.48;95433.25;4967405;28;20199;-80
2022/03/17 04:09:27;;;;;;;11.45;5.57;;;;;;;3.55;84.49;95438.63;4965673;28;20778;-80
2022/03/17 04:11:55;;;;;;;15.98;6.88;;;;;;;3.63;85.20;95439.19;4960209;28;20214;-80
2022/03/17 04:14:22;;;;;;;5.68;3.33;;;;;;;3.56;84.52;95440.22;4962007;28;20227;-77
2022/03/17 04:16:49;;;;;;;10.88;5.95;;;;;;;3.42;84.67;95454.38;4966270;28;20306;-76
2022/03/17 04:19:16;;;;;;;13.27;6.07;;;;;;;3.39;84.97;95454.91;4965442;28;20203;-80
2022/03/17 04:21:45;;;;;;;7.20;4.38;;;;;;;3.28;85.87;95462.06;4959893;28;20233;-78
2022/03/17 04:24:13;;;;;;;8.73;4.25;;;;;;;3.33;85.73;95472.81;4961078;28;20214;-78
2022/03/17 04:26:41;;;;;;;8.20;4.10;;;;;;;3.29;85.93;95471.72;4967032;28;20199;-81
2022/03/17 04:29:09;;;;;;;14.05;6.72;;;;;;;3.24;85.95;95479.75;4953916;28;20235;-80
2022/03/17 04:31:37;;;;;;;10.13;4.80;;;;;;;3.21;86.67;95474.91;4960544;28;20226;-80
2022/03/17 04:34:04;;;;;;;11.07;4.88;;;;;;;3.21;86.44;95477.59;4960723;28;20203;-79
2022/03/17 04:36:31;;;;;;;15.13;7.13;;;;;;;3.29;86.68;95477.06;4966368;28;20215;-79
2022/03/17 04:39:00;;;;;;;15.27;6.80;;;;;;;3.32;86.06;95487.28;4966447;28;20238;-79
2022/03/17 04:41:28;;;;;;;16.50;8.02;;;;;;;3.37;86.20;95487.31;4962230;28;20230;-79
2022/03/17 04:43:55;;;;;;;10.07;5.80;;;;;;;3.35;85.88;95486.75;4958198;28;20219;-80
2022/03/17 04:46:22;;;;;;;14.43;7.15;;;;;;;3.39;85.77;95497.75;4962996;28;20306;-81
2022/03/17 04:48:49;;;;;;;5.95;4.40;;;;;;;3.36;84.64;95491.06;4957405;28;20559;-80
2022/03/17 04:51:16;;;;;;;11.40;6.22;;;;;;;3.41;84.67;95493.75;4962877;28;20206;-80
2022/03/17 04:53:43;;;;;;;10.77;4.53;;;;;;;3.35;84.46;95492.13;4959326;28;20203;-79
2022/03/17 04:56:14;;;;;;;11.23;5.90;;;;;;;3.25;84.89;95500.09;4963986;28;20214;-82
2022/03/17 04:58:42;;;;;;;7.70;4.13;;;;;;;3.19;84.99;95488.56;4966475;28;20266;-78
2022/03/17 05:01:11;;;;;;;8.60;4.35;;;;;;;3.14;85.30;95495.78;4963433;28;20321;-81
2022/03/17 05:03:39;;;;;;;12.57;6.03;;;;;;;3.16;85.81;95504.31;4973128;28;20685;-84
2022/03/17 05:06:06;;;;;;;8.45;4.88;;;;;;;3.16;85.97;95507.00;4962550;28;20207;-83
2022/03/17 05:08:35;;;;;;;8.80;3.80;;;;;;;3.04;85.75;95515.22;4970137;28;20210;-83
2022/03/17 05:11:03;;;;;;;9.40;5.18;;;;;;;3.00;86.83;95514.16;4972404;28;20207;-81
2022/03/17 05:13:31;;;;;;;11.88;6.22;;;;;;;3.14;86.87;95519.84;4972011;28;20226;-80
2022/03/17 05:15:59;;;;;;;10.60;5.05;;;;;;;3.18;86.65;95518.25;4961462;28;20226;-81
2022/03/17 05:18:27;;;;;;;11.48;5.68;;;;;;;3.17;85.89;95522.81;4966072;28;20828;-80
2022/03/17 05:20:54;;;;;;;11.82;6.53;;;;;;;3.16;86.66;95517.69;4964754;28;20202;-81
2022/03/17 05:23:22;;;;;;;9.82;4.68;;;;;;;3.15;86.27;95534.81;4970402;28;20277;-80
2022/03/17 05:25:51;;;;;;;12.65;5.85;;;;;;;3.08;85.94;95540.41;4958581;28;20305;-80
2022/03/17 05:28:18;;;;;;;7.05;3.22;;;;;;;3.07;86.16;95546.03;4951518;28;20233;-79
2022/03/17 05:30:47;;;;;;;5.13;2.13;;;;;;;2.92;85.69;95540.56;4964722;28;20226;-77
2022/03/17 05:33:14;;;;;;;9.65;5.13;;;;;;;2.87;86.27;95544.00;4965142;28;20298;-81
2022/03/17 05:35:43;;;;;;;7.35;4.03;;;;;;;2.89;86.57;95549.09;4966110;28;20248;-75
2022/03/17 05:38:10;;;;;;;3.65;2.53;;;;;;;2.84;86.60;95545.34;4960233;28;20213;-79
2022/03/17 05:40:37;;;;;;;10.38;4.85;;;;;;;2.81;86.20;95551.19;4959457;28;20206;-79
2022/03/17 05:43:07;;;;;;;7.68;4.18;;;;;;;2.95;86.09;95556.91;4971917;28;20241;-80
2022/03/17 05:45:35;;;;;;;8.55;4.80;;;;;;;2.99;86.51;95565.25;4957282;28;20312;-81
2022/03/17 05:48:05;;;;;;;8.55;4.43;;;;;;;3.07;86.31;95570.13;4962311;28;20198;-80
2022/03/17 05:50:34;;;;;;;7.28;3.08;;;;;;;2.97;85.27;95578.88;4959349;28;20202;-80
2022/03/17 05:53:01;;;;;;;11.00;4.82;;;;;;;2.80;86.55;95579.00;4962459;28;20217;-81
2022/03/17 05:55:28;;;;;;;10.63;6.05;;;;;;;2.87;87.09;95591.38;4966431;28;20609;-82
2022/03/17 05:57:57;;;;;;;11.00;4.88;;;;;;;2.85;86.66;95600.47;4963249;28;20233;-86
2022/03/17 06:00:26;;;;;;;6.53;3.58;;;;;;;2.69;86.55;95601.41;4959198;28;20438;-87
2022/03/17 06:02:54;;;;;;;7.13;4.20;;;;;;;2.67;87.13;95598.16;4961048;28;20245;-83
2022/03/17 06:05:23;;;;;;;5.63;4.13;;;;;;;2.76;86.76;95596.63;4967242;28;20294;-81
2022/03/17 06:07:51;;;;;;;5.18;2.22;;;;;;;2.69;86.95;95606.75;4968007;28;20671;-81
2022/03/17 06:10:21;;;;;;;5.90;3.22;;;;;;;2.66;87.94;95601.09;4960706;28;20543;-84
2022/03/17 06:12:51;;;;;;;6.95;3.92;;;;;;;2.68;87.77;95605.13;4963784;28;20282;-82
2022/03/17 06:15:19;;;;;;;5.38;3.13;;;;;;;2.66;86.83;95595.75;4968974;28;20238;-80
2022/03/17 06:17:48;;;;;;;4.63;3.03;;;;;;;2.69;86.59;95604.06;4957142;28;20207;-82
2022/03/17 06:20:18;;;;;;;4.88;2.92;;;;;;;2.68;87.77;95607.00;4963360;28;20682;-79
2022/03/17 06:22:48;;;;;;;5.53;3.58;;;;;;;2.64;86.42;95609.38;4974611;28;20226;-83
2022/03/17 06:25:17;;;;;;;5.90;4.00;;;;;;;2.80;87.83;95608.44;4967575;28;20246;-83
2022/03/17 06:27:44;;;;;;;6.32;3.83;;;;;;;2.95;87.63;95615.00;4957429;28;20710;-82
2022/03/17 06:30:14;;;;;;;7.45;3.88;;;;;;;3.17;87.33;95608.47;4975479;28;20625;-87
2022/03/17 06:32:41;;;;;;;6.13;3.30;;;;;;;2.97;85.59;95621.69;4962893;28;20211;-82
2022/03/17 06:35:09;;;;;;;7.65;3.67;;;;;;;3.01;85.85;95619.31;4966610;28;20211;-82
2022/03/17 06:37:37;;;;;;;9.73;6.15;;;;;;;3.12;86.65;95626.38;4968568;28;20218;-80
2022/03/17 06:40:06;;;;;;;12.70;5.15;;;;;;;3.21;85.06;95622.16;4965132;28;20214;-80
2022/03/17 06:42:34;;;;;;;8.30;4.28;;;;;;;3.11;86.16;95628.25;4973907;28;20241;-80
2022/03/17 06:45:00;;;;;;;5.82;3.42;;;;;;;3.05;85.56;95628.44;4963921;28;20545;-81
2022/03/17 06:47:27;;;;;;;7.20;4.13;;;;;;;3.06;86.83;95632.75;4972921;28;20546;-81
2022/03/17 06:49:58;;;;;;;8.38;4.80;;;;;;;3.23;87.00;95633.41;4965878;28;20202;-80
2022/03/17 06:52:26;;;;;;;8.38;4.93;;;;;;;3.13;86.78;95638.69;4955109;28;20230;-80
2022/03/17 06:54:53;;;;;;;14.15;6.78;;;;;;;3.07;87.63;95639.72;4965963;28;20257;-80
2022/03/17 06:57:22;;;;;;;4.35;2.63;;;;;;;2.82;86.48;95633.09;4961494;28;20226;-78
2022/03/17 06:59:50;;;;;;;7.82;3.95;;;;;;;2.99;87.97;95637.50;4961976;28;20210;-80
2022/03/17 07:02:18;;;;;;;7.30;4.50;;;;;;;3.01;87.34;95652.22;4969635;28;20222;-80
2022/03/17 07:04:45;;;;;;;7.55;4.45;;;;;;;2.91;87.55;95649.47;4963268;28;20195;-75
2022/03/17 07:07:12;;;;;;;4.15;2.60;;;;;;;2.71;88.70;95651.97;4960932;28;20206;-79
2022/03/17 07:09:41;;;;;;;4.30;2.53;;;;;;;2.64;88.73;95662.84;4962547;28;20198;-79
2022/03/17 07:12:11;;;;;;;4.80;2.97;;;;;;;2.56;88.86;95666.00;4961421;28;20566;-82
2022/03/17 07:14:40;;;;;;;9.00;3.80;;;;;;;2.42;90.19;95670.13;4964623;28;20580;-79
2022/03/17 07:17:07;;;;;;;12.30;4.88;;;;;;;2.29;91.21;95673.19;4955359;28;20244;-78
2022/03/17 07:19:34;;;;;;;6.13;3.80;;;;;;;2.27;91.54;95672.63;4967901;28;20202;-80
2022/03/17 07:22:01;;;;;;;10.50;5.10;;;;;;;2.39;91.40;95670.59;4964004;28;20233;-81
2022/03/17 07:24:28;;;;;;;9.10;4.90;;;;;;;2.54;91.46;95669.97;4971622;28;20667;-80
2022/03/17 07:26:55;;;;;;;5.28;3.45;;;;;;;2.72;90.98;95675.00;4964001;28;20281;-80
2022/03/17 07:29:22;;;;;;;4.07;2.47;;;;;;;2.64;89.80;95672.75;4960886;28;20240;-80
2022/03/17 07:31:56;;;;;;;10.60;5.93;;;;;;;2.61;90.78;95684.75;4964949;28;20679;-79
2022/03/17 07:34:23;;;;;;;8.50;3.90;;;;;;;2.58;90.54;95679.94;4967556;28;20598;-79
2022/03/17 07:36:51;;;;;;;11.00;4.50;;;;;;;2.47;90.52;95688.88;4964763;28;20218;-79
2022/03/17 07:39:18;;;;;;;8.18;3.90;;;;;;;2.34;90.78;95682.03;4960614;28;20261;-78
2022/03/17 07:41:45;;;;;;;5.97;3.55;;;;;;;2.29;91.12;95686.53;4973255;28;20218;-76
2022/03/17 07:44:13;;;;;;;6.30;3.65;;;;;;;2.13;91.31;95691.69;4960545;28;20241;-77
2022/03/17 07:46:40;;;;;;;7.10;4.22;;;;;;;2.29;92.10;95686.53;4973729;28;20617;-80
2022/03/17 07:49:09;;;;;;;4.60;3.20;;;;;;;2.23;91.48;95687.53;4968448;28;20242;-73
2022/03/17 07:51:37;;;;;;;10.43;5.05;;;;;;;2.33;92.11;95690.31;4964973;28;20226;-77
2022/03/17 07:54:03;;;;;;;7.53;4.57;;;;;;;2.51;91.14;95690.00;4959767;28;20728;-77
2022/03/17 07:56:32;;;;;;;8.27;5.18;;;;;;;2.57;91.24;95691.69;4961728;28;20223;-78
2022/03/17 07:58:59;;;;;;;8.82;4.88;;;;;;;2.92;90.66;95693.09;4972762;28;20234;-78
2022/03/17 08:01:26;;;;;;;8.75;5.05;;;;;;;3.07;90.35;95694.03;4973283;28;20206;-78
2022/03/17 08:03:54;;;;;;;12.02;6.72;;;;;;;3.11;89.68;95689.00;4973637;28;20238;-77
2022/03/17 08:06:23;;;;;;;13.18;6.43;;;;;;;3.18;89.45;95689.59;4959751;28;20238;-78
2022/03/17 08:08:49;;;;;;;13.73;7.03;;;;;;;3.54;89.39;95691.50;4959517;28;20205;-78
2022/03/17 08:11:16;;;;;;;12.65;6.93;;;;;;;3.87;88.18;95686.88;4959979;28;20207;-77
2022/03/17 08:13:45;;;;;;;9.13;5.70;;;;;;;3.72;87.85;95689.44;4965334;28;20213;-76
2022/03/17 08:16:12;;;;;;;9.88;6.00;;;;;;;3.92;86.79;95677.00;4967037;28;20206;-76
2022/03/17 08:18:39;;;;;;;10.30;5.60;;;;;;;4.10;86.83;95689.13;4961071;28;20226;-77
2022/03/17 08:21:06;;;;;;;10.43;5.70;;;;;;;4.04;86.21;95692.88;4960206;28;20207;-77
2022/03/17 08:23:35;;;;;;;7.32;5.15;;;;;;;4.21;85.20;95687.34;4964570;28;20726;-77
2022/03/17 08:26:02;;;;;;;11.60;6.15;;;;;;;4.37;85.78;95675.59;4966672;28;20217;-77
2022/03/17 08:28:29;;;;;;;9.02;6.03;;;;;;;4.22;84.80;95683.59;4960659;28;20238;-76
2022/03/17 08:30:57;;;;;;;10.05;5.90;;;;;;;4.27;84.05;95680.91;4959883;28;20623;-78
2022/03/17 08:33:24;;;;;;;10.55;6.68;;;;;;;4.33;84.36;95682.56;4964328;28;20682;-78
2022/03/17 08:35:52;;;;;;;13.75;6.10;;;;;;;4.61;83.38;95684.00;4966290;28;20198;-78
2022/03/17 08:38:20;;;;;;;12.02;5.97;;;;;;;4.53;82.70;95685.31;4962082;28;20202;-78
2022/03/17 08:40:49;;;;;;;14.77;8.93;;;;;;;4.42;83.12;95682.84;4972810;28;20570;-78
2022/03/17 08:43:15;;;;;;;16.65;7.35;;;;;;;4.56;84.73;95681.28;4972828;28;20233;-77
2022/03/17 08:51:12;;;;;;;12.07;7.25;;;;;;;4.44;84.42;95683.41;4961591;28;20326;-78
2022/03/17 08:53:39;;;;;;;9.05;5.38;;;;;;;4.42;83.62;95682.84;4959149;28;20227;-78
2022/03/17 08:56:07;;;;;;;9.95;5.78;;;;;;;4.58;82.72;95679.16;4964373;28;20207;-78
2022/03/17 08:58:35;;;;;;;8.48;5.82;;;;;;;4.04;82.91;95686.72;4965873;28;20198;-78
2022/03/17 09:01:02;;;;;;;13.43;5.57;;;;;;;4.10;83.89;95686.47;4953642;28;20234;-78
2022/03/17 09:03:30;;;;;;;10.38;5.70;;;;;;;4.11;85.42;95698.78;4955828;28;20254;-77
2022/03/17 09:05:59;;;;;;;7.65;4.70;;;;;;;4.00;84.04;95697.13;4962921;28;20221;-80
2022/03/17 09:08:27;;;;;;;12.63;6.57;;;;;;;4.04;85.76;95703.59;4965876;28;20207;-78
2022/03/17 09:10:56;;;;;;;11.55;7.13;;;;;;;4.21;85.05;95704.22;4952668;28;20207;-79
2022/03/17 09:13:25;;;;;;;9.88;6.50;;;;;;;4.34;84.75;95705.63;4965206;28;20203;-78
2022/03/17 09:15:52;;;;;;;12.07;7.22;;;;;;;4.40;84.68;95701.06;4961836;28;20725;-78
2022/03/17 09:18:20;;;;;;;12.23;6.53;;;;;;;4.38;84.30;95708.56;4959394;28;20573;-77
2022/03/17 09:20:48;;;;;;;8.48;5.13;;;;;;;4.45;84.89;95709.16;4961137;28;20211;-78
2022/03/17 09:23:16;;;;;;;8.25;5.35;;;;;;;4.27;84.11;95719.25;4969716;28;20226;-79
2022/03/17 09:25:43;;;;;;;13.68;8.20;;;;;;;4.51;84.56;95718.84;4960856;28;20203;-78
2022/03/17 09:28:10;;;;;;;11.02;6.82;;;;;;;4.48;84.68;95727.41;4970627;28;20242;-78
2022/03/17 09:30:39;;;;;;;15.25;9.18;;;;;;;4.70;84.37;95728.03;4971383;28;20209;-78
2022/03/17 09:33:06;;;;;;;9.75;6.95;;;;;;;4.64;84.57;95729.91;4959388;28;20206;-78
2022/03/17 09:35:35;;;;;;;10.68;6.70;;;;;;;4.98;84.81;95734.81;4959701;28;20207;-78
2022/03/17 09:38:02;;;;;;;14.23;7.30;;;;;;;4.66;84.04;95735.00;4965870;28;20648;-77
2022/03/17 09:40:29;;;;;;;10.05;5.97;;;;;;;4.12;84.19;95743.31;4966890;28;20258;-77
2022/03/17 09:43:18;;;;;;;13.65;7.63;;;;;;;4.01;87.37;95746.19;4976194;28;20238;-77
2022/03/17 09:45:49;;;;;;;13.95;6.28;;;;;;;3.85;86.27;95751.44;4961904;28;20214;-75
2022/03/17 09:48:16;;;;;;;10.32;5.93;;;;;;;3.71;87.12;95752.94;4976214;28;20202;-79
2022/03/17 09:50:43;;;;;;;14.20;7.78;;;;;;;3.80;89.30;95754.13;4971368;28;20211;-75
2022/03/17 09:53:11;;;;;;;18.40;8.43;;;;;;;3.98;88.91;95762.78;4967018;28;20226;-77
2022/03/17 09:55:43;;;;;;;18.73;11.43;;;;;;;3.93;87.96;95760.91;4958110;28;20207;-76
2022/03/17 09:58:11;;;;;;;24.85;10.52;;;;;;;4.26;88.06;95743.66;4968354;28;20780;-78
2022/03/17 10:00:52;;;;;;;18.50;13.55;;;;;;;4.41;85.04;95745.63;4962720;28;20229;-78
2022/03/17 10:03:22;;;;;;;12.82;8.27;;;;;;;4.77;85.56;95744.72;4962426;28;20721;-78
2022/03/17 10:05:50;;;;;;;16.33;9.25;;;;;;;5.15;84.71;95745.34;4967271;28;20202;-78
2022/03/17 10:08:18;;;;;;;6.07;3.88;;;;;;;4.44;84.47;95745.09;4968917;28;20210;-78
2022/03/17 10:10:45;;;;;;;13.38;8.05;;;;;;;4.32;84.26;95757.91;4964770;28;20632;-79
2022/03/17 10:13:14;;;;;;;11.20;6.85;;;;;;;4.29;85.68;95757.38;4962258;28;20591;-78
2022/03/17 10:15:42;;;;;;;13.77;7.50;;;;;;;4.07;86.22;95755.91;4975186;28;20226;-78
2022/03/17 10:18:23;;;;;;;12.10;7.18;;;;;;;4.02;86.02;95763.91;4971306;28;20210;-77
2022/03/17 10:21:06;;;;;;;6.38;4.72;;;;;;;3.76;85.44;95760.22;4968251;28;20706;-75
2022/03/17 10:23:35;;;;;;;8.00;5.07;;;;;;;3.58;85.59;95764.09;4956533;28;20254;-78
2022/03/17 10:26:01;;;;;;;2.85;1.67;;;;;;;3.46;84.75;95766.94;4957748;28;20565;-75
2022/03/17 10:28:28;;;;;;;8.63;5.53;;;;;;;3.45;85.87;95768.00;4967252;28;20581;-77
2022/03/17 10:31:07;;;;;;;12.43;5.90;;;;;;;3.56;85.38;95768.91;4969946;28;20207;-81
2022/03/17 10:33:35;;;;;;;9.48;5.70;;;;;;;3.74;86.54;95763.16;4974562;28;20209;-75
2022/03/17 10:36:16;;;;;;;9.75;5.43;;;;;;;3.55;85.64;95760.06;4962372;28;20214;-76
2022/03/17 10:38:44;;;;;;;12.98;6.70;;;;;;;3.56;86.28;95767.03;4962423;28;20289;-76
2022/03/17 10:41:12;;;;;;;16.23;7.32;;;;;;;3.64;86.54;95763.09;4973759;28;20317;-80
2022/03/17 10:43:41;;;;;;;9.55;5.13;;;;;;;3.71;84.12;95763.66;4975046;28;20257;-76
2022/03/17 10:46:11;;;;;;;14.88;6.63;;;;;;;3.69;84.99;95759.66;4962459;28;20210;-78
2022/03/17 10:51:38;;;;;;;14.52;7.70;;;;;;;3.60;86.26;95771.88;5120772;27;20548;-77
2022/03/17 10:54:07;;;;;;;15.93;7.90;;;;;;;3.62;87.83;95769.75;5069332;28;20207;-77
2022/03/17 10:56:36;;;;;;;12.50;6.22;;;;;;;3.74;88.20;95765.84;5067986;28;20288;-76
2022/03/17 10:59:03;;;;;;;12.27;7.00;;;;;;;3.84;86.85;95778.50;5068291;28;20214;-78
2022/03/17 11:01:38;;;;;;;18.65;7.38;;;;;;;3.82;86.52;95769.94;5067993;28;20290;-79
2022/03/17 11:04:05;;;;;;;14.73;7.90;;;;;;;3.90;87.45;95777.50;5068558;28;20206;-78
2022/03/17 11:06:32;;;;;;;12.35;6.90;;;;;;;3.97;86.40;95772.69;5067672;28;20310;-79
2022/03/17 11:09:01;;;;;;;13.07;6.78;;;;;;;4.04;86.08;95767.94;5067651;28;20253;-78
2022/03/17 11:11:29;;;;;;;9.18;5.85;;;;;;;4.04;85.79;95762.59;5094427;28;20651;-81
2022/03/17 11:13:57;;;;;;;6.72;4.18;;;;;;;4.06;85.87;95765.81;5067906;28;20280;-75
2022/03/17 11:16:30;;;;;;;6.75;3.95;;;;;;;3.97;85.80;95769.22;5067557;28;20290;-81
2022/03/17 11:18:58;;;;;;;12.27;5.93;;;;;;;3.74;85.96;95763.16;5067096;28;20237;-79
2022/03/17 11:21:29;;;;;;;8.88;5.22;;;;;;;3.83;86.72;95760.81;5085372;28;20210;-79
2022/03/17 11:24:01;;;;;;;6.43;4.18;;;;;;;3.97;86.24;95766.53;5087980;28;20209;-79
2022/03/17 11:26:35;;;;;;;8.13;3.90;;;;;;;3.72;86.28;95764.47;5068426;28;20210;-78
2022/03/17 11:29:07;;;;;;;8.63;5.57;;;;;;;3.70;87.20;95761.25;5067187;28;20268;-79
2022/03/17 11:31:58;;;;;;;11.55;6.63;;;;;;;3.96;87.10;95765.75;5067268;28;20241;-78
2022/03/17 11:34:46;;;;;;;8.45;4.93;;;;;;;4.22;87.29;95756.81;5067269;28;20210;-78
2022/03/17 11:37:21;;;;;;;12.48;5.85;;;;;;;4.04;85.44;95767.13;5067212;28;20273;-79
2022/03/17 11:39:49;;;;;;;8.55;4.50;;;;;;;4.18;85.94;95761.06;5076229;28;20221;-79
2022/03/17 11:42:35;;;;;;;13.20;5.82;;;;;;;4.20;84.75;95740.16;5087018;28;20198;-82
2022/03/17 11:45:36;;;;;;;11.68;4.88;;;;;;;4.36;86.17;95737.56;5087081;28;20685;-78
2022/03/17 11:48:09;;;;;;;12.38;4.93;;;;;;;4.67;85.88;95739.28;5089604;28;20262;-78
2022/03/17 11:50:45;;;;;;;7.88;5.22;;;;;;;4.46;83.87;95732.25;5071249;28;20241;-78
2022/03/17 11:53:24;;;;;;;12.00;5.05;;;;;;;4.21;84.05;95736.41;5067470;28;20223;-76
2022/03/17 11:55:53;;;;;;;4.13;2.92;;;;;;;4.16;84.00;95738.25;5066694;28;20705;-81
2022/03/17 11:58:39;;;;;;;6.68;3.47;;;;;;;4.28;83.94;95742.34;5066431;28;20210;-80
2022/03/17 12:01:09;;;;;;;5.05;3.33;;;;;;;4.31;82.72;95745.56;5063085;28;20235;-78